McCarran International, NV

3:46 PM PDT on August 22, 2014 (GMT -0700)
Enterprise | Change Station
CLOSE
Current Station
Personal Weather Station
Location: Las Vegas, NV
Elevation: 2338 ft
Nearby Weather Stations

Elev 2338 ft 36.05 °N, 115.21 °W | Updated 10 seconds ago

Scattered Clouds
Scattered Clouds
97.7 °F
Feels Like 95 °F
N
8.3
Wind Variable Wind from South
Gusts 8.3 mph

Today
High -- | Low -- °F
--% Chance of Precip.
Yesterday
High -- | Low -- °F
Precip. -- in
6:04 AM 7:21 PM
Waning Crescent, 6% visible
Pressure 29.75 in
Visibility 10.0 miles
Clouds Scattered Clouds 10000 ft
Heat Index 95 °F
Dew Point 52 °F
Humidity 22%
Rainfall 0.00 in
Snow Depth Not available.
UV 6 out of 12
Pollen 6.00 out of 12
Ozone Good
PM2.5 Good
Flu Activity Not available.
METAR KLAS 222156Z 16010G19KT 10SM SCT100 33/11 A2983 RMK AO2 SLP075 T03280106

More Conditions Fewer Conditions

Pressure 29.75 in
Visibility 10.0 miles
Clouds Scattered Clouds 10000 ft
Heat Index 95 °F
Dew Point 52 °F
Humidity 22%
Rainfall 0.00 in
Snow Depth Not available.
UV 6 out of 12
Pollen 6.00 out of 12
Ozone Good
PM2.5 Good
Flu Activity Not available.
METAR KLAS 222156Z 16010G19KT 10SM SCT100 33/11 A2983 RMK AO2 SLP075 T03280106

More Conditions Fewer Conditions

10-Day Weather Forecast

Almanac

Astronomy

Aug. 22, 2014 Rise Set
Actual Time 6:04 AM PDT 7:21 PM PDT
Civil Twilight 5:37 AM PDT 7:48 PM PDT
Nautical Twilight 5:05 AM PDT 8:20 PM PDT
Astronomical Twilight 4:32 AM PDT 8:53 PM PDT
Moon 3:33 AM PDT 5:31 PM PDT
Length of Visible Light 14h 10m
Length of Day
13h 17m
Tomorrow will be 2m 6s shorter.
Waning Crescent, 6% of the Moon is Illuminated
Today
Waning Crescent
Aug 25
New
Sep 2
First Quarter
Sep 8
Full
Sep 15
Last Quarter

Today's Extremes

State Highs State Lows

Community

WunderPhotos

Upload Photos

1,746,278 photos uploaded!

WunderBlogs® & News

By Dr. Jeff Masters
Director of Meteorology, Weather Underground
By Kari Strenfel
Meteorologist, Weather Underground
By Christopher C. Burt
Weather Historian, Weather Underground
August 22, 2014
August 22, 2014
August 22, 2014

Nearby

Air Quality

  Air Quality AQ Index Pollutant
Yesterday Good
OZONE
Yesterday Good
PM10
Current Good
OZONE
Current Good
PM2.5
Friday Good
PM10
Friday Good
OZONE
Saturday Moderate
OZONE
Saturday Good
PM10
Sunday Moderate
OZONE
Sunday Good
PM10
Monday Moderate
OZONE
Monday Good
PM10
Tuesday Moderate
OZONE
Tuesday Good
PM10
Wednesday Moderate
OZONE
Wednesday Good
PM10

Snow Depth

Station Depth Elevation
Ward Mountain 0 in 9200 ft
Diamond Peak 0 in 8000 ft
Green Mountain 0 in 8000 ft
Lamoille #3 0 in 7700 ft
Taylor Canyon 1 in 6200 ft

Earthquake Activity

City Distance Mag. Time & Date
Big Bear City, California 153 miles 3.7 9:55 PM PDT
2014-08-17
Minimum magnitude displayed is 2.5.

Coastal Water Temperatures

Place Temperature
No Stations Reporting

Nearby Weather Stations